Hauptseite
METAR-TAF:

METAR-TAF

Flughäfen :

Cascavel, Paraná, Brasilien

Breite: 25-00-08S, Länge: 53-30-07W, Höhe: 754 m

Beobachtung

Neuester Wetterbericht von vor 2 Stunden und 7 Minuten, um 18:00 UTC
Wind 7 kt aus West
Temperatur 32°C
Luftfeuchtigkeit 43%
Luftdruck 1016 hPa
Sichtweite 10 km oder mehr
Aufgelockert bewölkt in der Höhe von 4000 ft
Leicht bewölkt in der Höhe von 5000 ft, Towering cumulus.

METAR: SBCA 181800Z 26007KT 9999 SCT040 FEW050TCU 32/18 Q1016

Zeit: 18:07 (20:07 UTC)


TAF: fehlend

Wetterbeobachtungen und Prognosen von mehr als 4000 Flughäfen (METAR und TAF Bericht).

Die verfügbaren Stationen werden durch gelbe und rote Markierungen auf der Karte dargestellt.

Führen Sie die Maus auf sie, um den Namen der Station zu sehen.

Darauf klicken, um die Beobachtung von Wetterbeobachtungen und Prognosen zu sehen.

Um die Karte zu ändern : klicken Sie auf den grünen Tasten mit einem schwarzen Kreuz Zum Vergrößern, auf den grünen Button mit einem Gedankenstrich zu verkleinern, oder auf die grünen Pfeile für benachbarte Karten.


METAR-TAF: